createdAt,value
2023-05-19T00:01:15.430Z,12.44
2023-05-19T00:02:47.558Z,12.44
2023-05-19T00:04:22.852Z,12.44
2023-05-19T00:05:54.890Z,12.44
2023-05-19T00:07:26.796Z,12.41
2023-05-19T00:08:59.562Z,12.42
2023-05-19T00:10:33.398Z,12.40
2023-05-19T00:12:05.637Z,12.34
2023-05-19T00:13:37.445Z,12.34
2023-05-19T00:15:10.813Z,12.33
2023-05-19T00:16:43.128Z,12.30
2023-05-19T00:18:16.878Z,12.28
2023-05-19T00:19:49.391Z,12.25
2023-05-19T00:21:21.502Z,12.23
2023-05-19T00:22:53.374Z,12.25
2023-05-19T00:24:25.209Z,12.24
2023-05-19T00:25:57.060Z,12.22
2023-05-19T00:27:28.948Z,12.19
2023-05-19T00:29:01.213Z,12.17
2023-05-19T00:30:33.445Z,12.17
2023-05-19T00:32:05.847Z,12.17
2023-05-19T00:33:37.691Z,12.15
2023-05-19T00:35:09.842Z,12.13
2023-05-19T00:36:42.213Z,12.13
2023-05-19T00:38:14.036Z,12.11
2023-05-19T00:39:46.145Z,12.09
2023-05-19T00:41:17.946Z,12.07
2023-05-19T00:42:49.865Z,12.07
2023-05-19T00:44:21.932Z,12.05
2023-05-19T00:45:53.801Z,12.02
2023-05-19T00:47:25.788Z,11.99
2023-05-19T00:48:57.669Z,11.98
2023-05-19T00:50:29.662Z,11.98
2023-05-19T00:52:02.091Z,11.98
2023-05-19T00:53:34.136Z,11.96
2023-05-19T00:55:06.017Z,11.96
2023-05-19T00:56:37.878Z,11.93
2023-05-19T00:58:10.113Z,11.89
2023-05-19T00:59:41.986Z,11.85
2023-05-19T01:01:14.847Z,11.83
2023-05-19T01:02:46.770Z,11.81
2023-05-19T01:04:20.392Z,11.80
2023-05-19T01:05:53.954Z,11.79
2023-05-19T01:07:25.862Z,11.72
2023-05-19T01:08:58.492Z,11.72
2023-05-19T01:10:30.562Z,11.70
2023-05-19T01:12:02.488Z,11.68
2023-05-19T01:13:35.143Z,11.68
2023-05-19T01:15:07.330Z,11.64
2023-05-19T01:16:43.881Z,11.65
2023-05-19T01:18:17.111Z,11.65
2023-05-19T01:19:56.541Z,11.64
2023-05-19T01:21:44.697Z,11.62
2023-05-19T01:23:36.810Z,11.60
2023-05-19T01:25:16.564Z,11.58
2023-05-19T01:27:00.124Z,11.58
2023-05-19T01:28:36.911Z,11.56
2023-05-19T01:30:10.457Z,11.55
2023-05-19T01:31:42.693Z,11.55
2023-05-19T01:33:14.901Z,11.52
2023-05-19T01:34:47.086Z,11.52
2023-05-19T01:36:19.665Z,11.52
2023-05-19T01:37:51.957Z,11.51
2023-05-19T01:39:23.828Z,11.49
2023-05-19T01:40:55.642Z,11.48
2023-05-19T01:42:27.726Z,11.48
2023-05-19T01:43:59.510Z,11.44
2023-05-19T01:45:32.897Z,11.43
2023-05-19T01:47:04.932Z,11.43
2023-05-19T01:48:36.848Z,11.42
2023-05-19T01:50:08.932Z,11.42
2023-05-19T01:51:41.180Z,11.38
2023-05-19T01:53:13.123Z,11.37
2023-05-19T01:54:45.130Z,11.37
2023-05-19T01:56:22.379Z,11.36
2023-05-19T01:58:07.751Z,11.35
2023-05-19T01:59:47.831Z,11.35
2023-05-19T02:01:19.665Z,11.32
2023-05-19T02:03:01.717Z,11.32
2023-05-19T02:04:40.355Z,11.32
2023-05-19T02:06:12.625Z,11.29
2023-05-19T02:07:50.624Z,11.26
2023-05-19T02:09:31.621Z,11.25
2023-05-19T02:11:04.470Z,11.22
2023-05-19T02:12:37.879Z,11.22
2023-05-19T02:14:14.578Z,11.20
2023-05-19T02:15:46.495Z,11.19
2023-05-19T02:17:19.083Z,11.20
2023-05-19T02:18:52.333Z,11.21
2023-05-19T02:20:24.316Z,11.21
2023-05-19T02:21:56.678Z,11.16
2023-05-19T02:23:28.549Z,11.13
2023-05-19T02:25:02.681Z,11.11
2023-05-19T02:26:37.839Z,11.11
2023-05-19T02:28:09.684Z,11.11
2023-05-19T02:29:41.673Z,11.10
2023-05-19T02:31:13.463Z,11.10
2023-05-19T02:32:48.225Z,11.08
2023-05-19T02:34:21.301Z,11.10
2023-05-19T02:35:53.337Z,11.06
2023-05-19T02:37:25.572Z,11.05
2023-05-19T02:38:57.534Z,11.04
2023-05-19T02:40:29.690Z,11.02
2023-05-19T02:42:01.736Z,11.02
2023-05-19T02:43:34.627Z,11.00
2023-05-19T02:45:06.602Z,10.96
2023-05-19T02:46:38.476Z,10.96
2023-05-19T02:48:10.410Z,10.96
2023-05-19T02:49:43.364Z,10.94
2023-05-19T02:51:15.155Z,10.92
2023-05-19T02:52:46.972Z,10.91
2023-05-19T02:54:18.799Z,10.89
2023-05-19T02:55:50.599Z,10.89
2023-05-19T02:57:22.454Z,10.89
2023-05-19T02:58:54.384Z,10.88
2023-05-19T03:00:26.308Z,10.84
2023-05-19T03:01:59.945Z,10.85
2023-05-19T03:03:32.131Z,10.87
2023-05-19T03:05:04.240Z,10.87
2023-05-19T03:06:36.683Z,10.83
2023-05-19T03:08:08.593Z,10.82
2023-05-19T03:09:40.584Z,10.78
2023-05-19T03:11:12.372Z,10.75
2023-05-19T03:12:44.764Z,10.71
2023-05-19T03:14:18.919Z,10.73
2023-05-19T03:15:51.418Z,10.74
2023-05-19T03:17:23.415Z,10.69
2023-05-19T03:18:55.895Z,10.69
2023-05-19T03:20:27.893Z,10.70
2023-05-19T03:21:59.810Z,10.69
2023-05-19T03:23:31.709Z,10.70
2023-05-19T03:25:03.737Z,10.69
2023-05-19T03:26:35.880Z,10.68
2023-05-19T03:28:07.853Z,10.64
2023-05-19T03:29:39.776Z,10.65
2023-05-19T03:31:11.751Z,10.62
2023-05-19T03:32:44.164Z,10.61
2023-05-19T03:34:16.596Z,10.59
2023-05-19T03:35:48.539Z,10.60
2023-05-19T03:37:21.078Z,10.58
2023-05-19T03:38:52.954Z,10.59
2023-05-19T03:40:24.886Z,10.57
2023-05-19T03:42:02.406Z,10.55
2023-05-19T03:43:34.342Z,10.54
2023-05-19T03:45:09.404Z,10.52
2023-05-19T03:46:44.562Z,10.51
2023-05-19T03:48:22.033Z,10.51
2023-05-19T03:50:14.238Z,10.49
2023-05-19T03:51:58.464Z,10.46
2023-05-19T03:53:42.201Z,10.44
2023-05-19T03:55:14.989Z,10.44
2023-05-19T03:56:46.888Z,10.39
2023-05-19T03:58:19.205Z,10.41
2023-05-19T03:59:51.047Z,10.40
2023-05-19T04:01:22.875Z,10.41
2023-05-19T04:02:54.883Z,10.43
2023-05-19T04:04:26.990Z,10.42
2023-05-19T04:05:58.863Z,10.41
2023-05-19T04:07:31.265Z,10.39
2023-05-19T04:09:04.762Z,10.39
2023-05-19T04:10:36.662Z,10.37
2023-05-19T04:12:08.709Z,10.36
2023-05-19T04:13:40.591Z,10.36
2023-05-19T04:15:12.841Z,10.39
2023-05-19T04:16:45.522Z,10.39
2023-05-19T04:18:17.352Z,10.37
2023-05-19T04:19:49.166Z,10.37
2023-05-19T04:21:22.659Z,10.37
2023-05-19T04:22:54.523Z,10.39
2023-05-19T04:24:26.515Z,10.38
2023-05-19T04:25:58.410Z,10.37
2023-05-19T04:27:32.191Z,10.34
2023-05-19T04:29:05.110Z,10.34
2023-05-19T04:30:38.857Z,10.33
2023-05-19T04:32:10.947Z,10.32
2023-05-19T04:33:44.192Z,10.34
2023-05-19T04:35:17.767Z,10.35
2023-05-19T04:36:50.970Z,10.36
2023-05-19T04:38:25.149Z,10.35
2023-05-19T04:39:57.425Z,10.35
2023-05-19T04:41:31.056Z,10.36
2023-05-19T04:43:02.878Z,10.37
2023-05-19T04:44:36.383Z,10.38
2023-05-19T04:46:12.317Z,10.39
2023-05-19T04:47:47.206Z,10.37
2023-05-19T04:49:19.687Z,10.37
2023-05-19T04:50:52.229Z,10.39
2023-05-19T04:52:24.163Z,10.41
2023-05-19T04:53:56.674Z,10.41
2023-05-19T04:55:28.521Z,10.42
2023-05-19T04:57:00.294Z,10.45
2023-05-19T04:58:34.385Z,10.47
2023-05-19T05:00:08.651Z,10.46
2023-05-19T05:01:49.524Z,10.46
2023-05-19T05:03:24.361Z,10.48
2023-05-19T05:04:56.967Z,10.49
2023-05-19T05:06:29.462Z,10.54
2023-05-19T05:08:01.404Z,10.57
2023-05-19T05:09:37.154Z,10.58
2023-05-19T05:11:09.265Z,10.61
2023-05-19T05:12:41.798Z,10.58
2023-05-19T05:14:13.747Z,10.59
2023-05-19T05:15:47.154Z,10.60
2023-05-19T05:17:19.276Z,10.62
2023-05-19T05:18:51.450Z,10.64
2023-05-19T05:20:23.703Z,10.61
2023-05-19T05:21:55.750Z,10.62
2023-05-19T05:23:27.987Z,10.63
2023-05-19T05:24:59.978Z,10.66
2023-05-19T05:26:32.221Z,10.67
2023-05-19T05:28:05.488Z,10.68
2023-05-19T05:29:39.356Z,10.71
2023-05-19T05:31:12.550Z,10.75
2023-05-19T05:32:45.298Z,10.75
2023-05-19T05:34:31.424Z,10.77
2023-05-19T05:36:03.877Z,10.81
2023-05-19T05:37:35.946Z,10.82
2023-05-19T05:39:08.429Z,10.84
2023-05-19T05:40:41.672Z,10.87
2023-05-19T05:42:14.831Z,10.89
2023-05-19T05:43:46.697Z,10.92
2023-05-19T05:45:18.552Z,10.93
2023-05-19T05:46:50.702Z,10.96
2023-05-19T05:48:22.882Z,11.00
2023-05-19T05:49:54.999Z,11.04
2023-05-19T05:51:26.877Z,11.09
2023-05-19T05:52:58.704Z,11.15
2023-05-19T05:54:31.752Z,11.19
2023-05-19T05:56:03.811Z,11.21
2023-05-19T05:57:43.767Z,11.24
2023-05-19T05:59:15.609Z,11.30
2023-05-19T06:00:51.810Z,11.38
2023-05-19T06:02:23.922Z,11.49
2023-05-19T06:03:55.796Z,11.65
2023-05-19T06:05:29.178Z,11.86
2023-05-19T06:07:02.159Z,12.13
2023-05-19T06:08:38.214Z,12.42
2023-05-19T06:10:13.097Z,12.59
2023-05-19T06:11:45.319Z,12.78
2023-05-19T06:13:22.463Z,13.00
2023-05-19T06:14:54.294Z,13.44
2023-05-19T06:16:26.286Z,13.70
2023-05-19T06:17:59.932Z,13.75
2023-05-19T06:19:32.089Z,14.08
2023-05-19T06:21:04.133Z,14.33
2023-05-19T06:22:36.342Z,14.43
2023-05-19T06:24:09.528Z,14.39
2023-05-19T06:25:41.810Z,14.25
2023-05-19T06:27:14.252Z,14.19
2023-05-19T06:28:46.122Z,14.00
2023-05-19T06:30:28.803Z,13.87
2023-05-19T06:32:23.851Z,13.85
2023-05-19T06:33:55.810Z,13.82
2023-05-19T06:35:27.649Z,13.72
2023-05-19T06:37:02.655Z,13.70
2023-05-19T06:38:35.909Z,13.70
2023-05-19T06:40:08.616Z,13.80
2023-05-19T06:41:41.604Z,13.73
2023-05-19T06:43:13.726Z,13.75
2023-05-19T06:45:06.310Z,13.79
2023-05-19T06:46:38.230Z,13.70
2023-05-19T06:48:10.560Z,13.67
2023-05-19T06:49:43.016Z,13.65
2023-05-19T06:51:16.949Z,13.64
2023-05-19T06:52:49.183Z,13.59
2023-05-19T06:54:21.273Z,13.56
2023-05-19T06:55:59.553Z,13.57
2023-05-19T06:57:36.418Z,13.57
2023-05-19T06:59:08.566Z,13.55
2023-05-19T07:00:42.273Z,13.63
2023-05-19T07:02:30.994Z,13.68
2023-05-19T07:04:03.114Z,13.74
2023-05-19T07:05:35.349Z,13.79
2023-05-19T07:07:07.491Z,13.86
2023-05-19T07:08:39.805Z,13.93
2023-05-19T07:10:13.036Z,13.96
2023-05-19T07:11:44.990Z,14.02
2023-05-19T07:13:17.105Z,14.07
2023-05-19T07:14:48.990Z,14.17
2023-05-19T07:16:21.939Z,14.17
2023-05-19T07:17:53.996Z,14.28
2023-05-19T07:19:26.354Z,14.34
2023-05-19T07:20:59.404Z,14.38
2023-05-19T07:22:31.684Z,14.49
2023-05-19T07:24:03.789Z,14.59
2023-05-19T07:25:35.851Z,14.69
2023-05-19T07:27:07.979Z,14.77
2023-05-19T07:28:41.615Z,14.86
2023-05-19T07:30:13.757Z,14.90
2023-05-19T07:31:45.838Z,15.03
2023-05-19T07:33:17.842Z,15.15
2023-05-19T07:34:49.687Z,15.31
2023-05-19T07:36:21.710Z,15.44
2023-05-19T07:37:53.853Z,15.48
2023-05-19T07:39:28.170Z,15.56
2023-05-19T07:41:00.404Z,15.66
2023-05-19T07:42:32.342Z,15.79
2023-05-19T07:44:08.047Z,15.81
2023-05-19T07:45:40.124Z,15.95
2023-05-19T07:47:12.090Z,16.02
2023-05-19T07:48:44.052Z,16.04
2023-05-19T07:50:16.532Z,16.02
2023-05-19T07:51:48.394Z,16.12
2023-05-19T07:53:20.426Z,16.25
2023-05-19T07:54:52.477Z,16.37
2023-05-19T07:56:25.174Z,16.44
2023-05-19T07:57:57.531Z,16.56
2023-05-19T07:59:29.412Z,16.63
2023-05-19T08:01:01.455Z,16.74
2023-05-19T08:02:34.213Z,16.82
2023-05-19T08:04:06.434Z,16.92
2023-05-19T08:05:38.490Z,16.93
2023-05-19T08:07:10.376Z,17.04
2023-05-19T08:08:42.548Z,17.13
2023-05-19T08:10:14.449Z,17.17
2023-05-19T08:11:47.332Z,17.26
2023-05-19T08:13:19.394Z,17.43
2023-05-19T08:14:51.514Z,17.54
2023-05-19T08:16:23.598Z,17.73
2023-05-19T08:17:55.588Z,17.80
2023-05-19T08:19:27.769Z,17.93
2023-05-19T08:20:59.774Z,17.87
2023-05-19T08:22:31.731Z,17.98
2023-05-19T08:24:03.894Z,18.07
2023-05-19T08:25:36.018Z,18.09
2023-05-19T08:27:08.090Z,18.16
2023-05-19T08:28:39.973Z,18.29
2023-05-19T08:30:12.196Z,18.42
2023-05-19T08:31:44.748Z,18.50
2023-05-19T08:33:16.863Z,18.62
2023-05-19T08:34:48.843Z,18.67
2023-05-19T08:36:22.314Z,18.74
2023-05-19T08:37:54.369Z,18.64
2023-05-19T08:39:29.246Z,18.68
2023-05-19T08:41:01.268Z,18.77
2023-05-19T08:42:36.118Z,18.97
2023-05-19T08:44:08.002Z,19.05
2023-05-19T08:45:40.425Z,18.92
2023-05-19T08:47:14.988Z,19.08
2023-05-19T08:48:46.954Z,19.24
2023-05-19T08:50:21.774Z,19.31
2023-05-19T08:51:59.816Z,19.36
2023-05-19T08:53:34.846Z,19.55
2023-05-19T08:55:09.963Z,19.54
2023-05-19T08:56:45.853Z,19.48
2023-05-19T08:58:20.614Z,19.56
2023-05-19T08:59:52.555Z,19.67
2023-05-19T09:01:24.514Z,19.78
2023-05-19T09:03:06.128Z,19.85
2023-05-19T09:04:49.224Z,19.98
2023-05-19T09:06:21.741Z,19.97
2023-05-19T09:07:53.738Z,20.08
2023-05-19T09:09:25.924Z,20.24
2023-05-19T09:10:57.963Z,20.31
2023-05-19T09:12:29.908Z,20.47
2023-05-19T09:14:01.817Z,20.60
2023-05-19T09:15:34.552Z,20.52
2023-05-19T09:17:06.897Z,20.63
2023-05-19T09:18:39.248Z,20.70
2023-05-19T09:20:11.827Z,20.95
2023-05-19T09:21:44.642Z,21.11
2023-05-19T09:23:17.256Z,21.24
2023-05-19T09:24:49.070Z,21.27
2023-05-19T09:26:23.732Z,21.20
2023-05-19T09:27:55.568Z,21.29
2023-05-19T09:29:27.470Z,21.28
2023-05-19T09:31:05.650Z,21.38
2023-05-19T09:32:37.581Z,21.54
2023-05-19T09:34:12.525Z,21.63
2023-05-19T09:35:47.222Z,21.50
2023-05-19T09:37:22.346Z,21.51
2023-05-19T09:38:54.185Z,21.79
2023-05-19T09:40:26.614Z,21.94
2023-05-19T09:41:59.041Z,22.06
2023-05-19T09:43:32.038Z,22.11
2023-05-19T09:45:04.167Z,22.28
2023-05-19T09:46:36.861Z,22.47
2023-05-19T09:48:08.942Z,22.47
2023-05-19T09:49:46.129Z,22.40
2023-05-19T09:51:18.017Z,22.44
2023-05-19T09:52:50.604Z,22.40
2023-05-19T09:54:24.037Z,22.39
2023-05-19T09:55:58.111Z,22.45
2023-05-19T09:57:40.338Z,22.66
2023-05-19T09:59:12.762Z,22.41
2023-05-19T10:00:45.186Z,22.39
2023-05-19T10:02:18.056Z,22.43
2023-05-19T10:03:49.985Z,22.61
2023-05-19T10:05:22.203Z,22.61
2023-05-19T10:06:54.730Z,22.66
2023-05-19T10:08:27.639Z,22.51
2023-05-19T10:09:59.454Z,22.63
2023-05-19T10:11:31.427Z,22.73
2023-05-19T10:13:04.542Z,22.82
2023-05-19T10:14:36.398Z,22.31
2023-05-19T10:16:08.866Z,22.36
2023-05-19T10:17:41.531Z,22.51
2023-05-19T10:19:13.476Z,22.63
2023-05-19T10:20:45.321Z,22.76
2023-05-19T10:22:17.232Z,22.88
2023-05-19T10:23:49.039Z,23.05
2023-05-19T10:25:21.461Z,23.35
2023-05-19T10:27:09.771Z,23.33
2023-05-19T10:28:43.765Z,23.60
2023-05-19T10:30:18.400Z,23.45
2023-05-19T10:31:51.017Z,23.67
2023-05-19T10:33:23.392Z,23.85
2023-05-19T10:34:55.497Z,23.55
2023-05-19T10:36:44.588Z,23.50
2023-05-19T10:38:16.707Z,23.67
2023-05-19T10:39:48.564Z,23.70
2023-05-19T10:41:29.729Z,23.83
2023-05-19T10:43:20.317Z,23.81
2023-05-19T10:45:07.780Z,23.79
2023-05-19T10:46:43.296Z,23.95
2023-05-19T10:48:16.605Z,24.07
2023-05-19T10:49:48.738Z,24.06
2023-05-19T10:51:20.815Z,24.22
2023-05-19T10:52:56.343Z,24.32
2023-05-19T10:54:48.437Z,24.32
2023-05-19T10:56:31.380Z,24.29
2023-05-19T10:58:03.229Z,24.23
2023-05-19T10:59:38.433Z,23.69
2023-05-19T11:01:13.807Z,23.65
2023-05-19T11:02:46.378Z,23.78
2023-05-19T11:04:18.272Z,24.06
2023-05-19T11:05:52.624Z,24.24
2023-05-19T11:07:25.127Z,24.27
2023-05-19T11:09:01.329Z,24.31
2023-05-19T11:10:33.604Z,24.37
2023-05-19T11:12:05.541Z,24.45
2023-05-19T11:13:37.585Z,24.30
2023-05-19T11:15:13.261Z,24.38
2023-05-19T11:16:48.437Z,24.52
2023-05-19T11:18:21.739Z,24.57
2023-05-19T11:19:57.038Z,24.75
2023-05-19T11:21:47.337Z,24.65
2023-05-19T11:23:19.341Z,24.73
2023-05-19T11:24:53.178Z,24.57
2023-05-19T11:26:40.469Z,24.38
2023-05-19T11:28:13.569Z,24.30
2023-05-19T11:29:45.394Z,24.30
2023-05-19T11:31:17.404Z,24.38
2023-05-19T11:32:49.281Z,24.47
2023-05-19T11:34:21.374Z,24.61
2023-05-19T11:35:53.735Z,24.71
2023-05-19T11:37:25.712Z,24.60
2023-05-19T11:38:57.773Z,24.62
2023-05-19T11:40:29.919Z,24.49
2023-05-19T11:42:01.923Z,24.59
2023-05-19T11:43:33.980Z,24.61
2023-05-19T11:45:06.184Z,24.81
2023-05-19T11:46:38.365Z,25.00
2023-05-19T11:48:13.473Z,24.92
2023-05-19T11:49:46.260Z,24.54
2023-05-19T11:51:18.145Z,24.34
2023-05-19T11:52:50.907Z,23.98
2023-05-19T11:54:22.815Z,23.88
2023-05-19T11:55:54.750Z,23.89
2023-05-19T11:57:26.747Z,23.87
2023-05-19T11:58:58.610Z,23.98
2023-05-19T12:00:31.288Z,23.66
2023-05-19T12:02:04.303Z,23.73
2023-05-19T12:03:36.331Z,23.75
2023-05-19T12:05:09.110Z,23.83
2023-05-19T12:06:41.043Z,23.99
2023-05-19T12:08:13.243Z,23.73
2023-05-19T12:09:48.329Z,23.80
2023-05-19T12:11:20.237Z,23.88
2023-05-19T12:12:52.357Z,23.70
2023-05-19T12:14:26.124Z,23.79
2023-05-19T12:16:01.856Z,23.62
2023-05-19T12:17:33.934Z,23.38
2023-05-19T12:19:06.459Z,23.27
2023-05-19T12:20:38.535Z,23.19
2023-05-19T12:22:10.534Z,23.07
2023-05-19T12:23:42.740Z,23.03
2023-05-19T12:25:15.721Z,23.19
2023-05-19T12:26:50.557Z,23.45
2023-05-19T12:28:22.491Z,23.50
2023-05-19T12:29:55.190Z,23.18
2023-05-19T12:31:28.415Z,23.36
2023-05-19T12:33:00.621Z,23.63
2023-05-19T12:34:32.628Z,23.73
2023-05-19T12:36:05.324Z,23.65
2023-05-19T12:37:37.512Z,23.67
2023-05-19T12:39:09.780Z,23.67
2023-05-19T12:40:41.779Z,23.79
2023-05-19T12:42:13.808Z,24.01
2023-05-19T12:43:45.770Z,24.05
2023-05-19T12:45:20.413Z,23.77
2023-05-19T12:46:52.461Z,23.90
2023-05-19T12:48:24.522Z,24.20
2023-05-19T12:49:57.191Z,24.27
2023-05-19T12:51:29.189Z,24.33
2023-05-19T12:53:01.075Z,23.98
2023-05-19T12:54:36.158Z,23.90
2023-05-19T12:56:14.749Z,23.90
2023-05-19T12:57:57.583Z,23.80
2023-05-19T13:01:15.678Z,23.74
2023-05-19T13:02:57.186Z,23.82
2023-05-19T13:04:29.276Z,24.06
2023-05-19T13:06:01.245Z,24.12
2023-05-19T13:07:33.159Z,24.17
2023-05-19T13:09:05.166Z,24.24
2023-05-19T13:10:38.077Z,24.33
2023-05-19T13:12:10.026Z,24.42
2023-05-19T13:13:42.078Z,24.42
2023-05-19T13:15:14.009Z,24.30
2023-05-19T13:16:49.335Z,24.34
2023-05-19T13:18:21.565Z,24.13
2023-05-19T13:19:53.609Z,24.07
2023-05-19T13:21:25.571Z,24.29
2023-05-19T13:22:57.704Z,24.38
2023-05-19T13:24:29.964Z,24.47
2023-05-19T13:26:01.921Z,24.54
2023-05-19T13:27:33.896Z,24.29
2023-05-19T13:29:05.906Z,24.13
2023-05-19T13:30:40.191Z,24.20
2023-05-19T13:32:12.136Z,24.30
2023-05-19T13:33:44.066Z,24.26
2023-05-19T13:35:16.125Z,24.29
2023-05-19T13:36:49.186Z,24.37
2023-05-19T13:38:21.156Z,24.37
2023-05-19T13:39:53.246Z,24.20
2023-05-19T13:41:26.471Z,24.29
2023-05-19T13:42:58.493Z,24.46
2023-05-19T13:44:30.426Z,24.51
2023-05-19T13:46:02.507Z,24.53
2023-05-19T13:47:34.447Z,24.51
2023-05-19T13:49:06.341Z,24.43
2023-05-19T13:50:38.290Z,24.59
2023-05-19T13:52:10.091Z,24.68
2023-05-19T13:53:42.655Z,24.84
2023-05-19T13:55:14.524Z,24.77
2023-05-19T13:56:48.854Z,24.81
2023-05-19T13:58:20.699Z,24.57
2023-05-19T14:00:02.722Z,24.64
2023-05-19T14:01:44.248Z,24.82
2023-05-19T14:03:19.898Z,24.93
2023-05-19T14:04:51.838Z,24.90
2023-05-19T14:06:23.694Z,24.84
2023-05-19T14:07:55.567Z,24.87
2023-05-19T14:09:28.113Z,24.91
2023-05-19T14:11:01.604Z,24.95
2023-05-19T14:12:43.555Z,24.86
2023-05-19T14:14:19.325Z,24.78
2023-05-19T14:15:51.216Z,24.95
2023-05-19T14:17:23.105Z,24.81
2023-05-19T14:18:55.124Z,24.79
2023-05-19T14:20:28.667Z,24.84
2023-05-19T14:22:01.258Z,24.80
2023-05-19T14:23:33.159Z,24.93
2023-05-19T14:25:05.445Z,25.01
2023-05-19T14:26:37.334Z,25.08
2023-05-19T14:28:11.249Z,24.93
2023-05-19T14:31:15.132Z,25.05
2023-05-19T14:32:47.082Z,24.87
2023-05-19T14:34:21.446Z,24.80
2023-05-19T14:35:53.584Z,24.91
2023-05-19T14:37:29.108Z,24.84
2023-05-19T14:39:01.459Z,24.64
2023-05-19T14:40:33.564Z,24.60
2023-05-19T14:42:05.972Z,24.70
2023-05-19T14:43:37.909Z,24.81
2023-05-19T14:45:10.139Z,24.80
2023-05-19T14:46:42.068Z,24.73
2023-05-19T14:48:14.175Z,24.65
2023-05-19T14:49:46.133Z,24.38
2023-05-19T14:51:18.341Z,24.25
2023-05-19T14:52:50.300Z,24.11
2023-05-19T14:54:22.184Z,24.06
2023-05-19T14:55:54.150Z,24.17
2023-05-19T14:57:25.980Z,24.30
2023-05-19T14:58:57.981Z,24.43
2023-05-19T15:00:30.208Z,24.62
2023-05-19T15:02:02.156Z,24.71
2023-05-19T15:03:34.201Z,24.65
2023-05-19T15:05:06.370Z,24.49
2023-05-19T15:06:38.248Z,24.56
2023-05-19T15:08:10.156Z,24.61
2023-05-19T15:09:41.987Z,24.63
2023-05-19T15:11:13.913Z,24.73
2023-05-19T15:12:45.863Z,24.78
2023-05-19T15:14:17.990Z,24.71
2023-05-19T15:15:49.863Z,24.43
2023-05-19T15:17:21.838Z,24.48
2023-05-19T15:18:53.738Z,24.62
2023-05-19T15:20:28.740Z,24.72
2023-05-19T15:22:01.409Z,24.70
2023-05-19T15:23:33.313Z,24.86
2023-05-19T15:25:05.372Z,24.68
2023-05-19T15:26:37.230Z,24.80
2023-05-19T15:28:09.096Z,24.75
2023-05-19T15:29:40.949Z,24.55
2023-05-19T15:31:12.880Z,24.59
2023-05-19T15:32:44.793Z,24.69
2023-05-19T15:34:16.684Z,24.80
2023-05-19T15:35:51.893Z,24.92
2023-05-19T15:37:23.745Z,24.90
2023-05-19T15:38:55.685Z,24.91
2023-05-19T15:40:27.564Z,24.96
2023-05-19T15:41:59.639Z,24.97
2023-05-19T15:43:31.540Z,25.03
2023-05-19T15:45:03.523Z,25.01
2023-05-19T15:46:35.575Z,24.94
2023-05-19T15:48:07.575Z,24.90
2023-05-19T15:49:39.601Z,24.79
2023-05-19T15:51:11.868Z,24.70
2023-05-19T15:52:43.865Z,24.72
2023-05-19T15:54:15.725Z,24.66
2023-05-19T15:55:47.630Z,24.67
2023-05-19T15:57:19.425Z,24.64
2023-05-19T15:58:51.405Z,24.56
2023-05-19T16:00:23.875Z,24.60
2023-05-19T16:01:55.829Z,24.48
2023-05-19T16:03:27.878Z,24.38
2023-05-19T16:04:59.776Z,24.29
2023-05-19T16:06:31.913Z,24.14
2023-05-19T16:08:03.926Z,24.23
2023-05-19T16:09:35.806Z,24.29
2023-05-19T16:11:07.678Z,24.27
2023-05-19T16:12:39.541Z,24.24
2023-05-19T16:14:11.506Z,24.21
2023-05-19T16:15:43.377Z,24.03
2023-05-19T16:17:15.508Z,23.93
2023-05-19T16:18:47.372Z,23.84
2023-05-19T16:20:20.381Z,23.74
2023-05-19T16:21:52.170Z,23.70
2023-05-19T16:23:24.978Z,23.68
2023-05-19T16:24:56.789Z,23.61
2023-05-19T16:26:29.182Z,23.62
2023-05-19T16:28:12.075Z,23.63
2023-05-19T16:29:43.961Z,23.49
2023-05-19T16:31:15.884Z,23.48
2023-05-19T16:32:47.787Z,23.48
2023-05-19T16:34:19.741Z,23.52
2023-05-19T16:35:51.686Z,23.57
2023-05-19T16:37:23.630Z,23.53
2023-05-19T16:38:55.793Z,23.47
2023-05-19T16:40:30.153Z,23.31
2023-05-19T16:42:03.349Z,23.18
2023-05-19T16:43:36.143Z,22.97
2023-05-19T16:45:08.323Z,22.84
2023-05-19T16:46:40.384Z,22.81
2023-05-19T16:48:12.410Z,22.85
2023-05-19T16:49:44.380Z,22.83
2023-05-19T16:51:16.321Z,22.89
2023-05-19T16:52:48.158Z,22.97
2023-05-19T16:54:20.073Z,22.95
2023-05-19T16:55:51.905Z,22.90
2023-05-19T16:57:23.776Z,22.83
2023-05-19T16:58:55.784Z,22.85
2023-05-19T17:00:29.673Z,22.88
2023-05-19T17:02:01.695Z,22.85
2023-05-19T17:03:35.929Z,22.81
2023-05-19T17:05:08.161Z,22.83
2023-05-19T17:06:40.393Z,22.82
2023-05-19T17:08:12.931Z,22.84
2023-05-19T17:09:44.972Z,22.81
2023-05-19T17:11:16.737Z,22.77
2023-05-19T17:12:48.586Z,22.75
2023-05-19T17:14:21.121Z,22.77
2023-05-19T17:15:53.024Z,22.82
2023-05-19T17:17:24.940Z,22.83
2023-05-19T17:18:56.837Z,22.99
2023-05-19T17:20:28.748Z,23.15
2023-05-19T17:22:00.592Z,23.31
2023-05-19T17:23:32.714Z,23.54
2023-05-19T17:25:04.724Z,23.62
2023-05-19T17:26:36.711Z,23.70
2023-05-19T17:28:08.682Z,23.74
2023-05-19T17:29:40.548Z,23.70
2023-05-19T17:31:12.874Z,23.61
2023-05-19T17:32:44.831Z,23.48
2023-05-19T17:34:16.749Z,23.24
2023-05-19T17:35:48.532Z,23.22
2023-05-19T17:37:23.680Z,23.23
2023-05-19T17:38:55.503Z,23.16
2023-05-19T17:40:27.423Z,23.05
2023-05-19T17:41:59.276Z,22.87
2023-05-19T17:43:31.129Z,22.77
2023-05-19T17:45:07.711Z,22.63
2023-05-19T17:46:39.819Z,22.39
2023-05-19T17:48:11.902Z,22.27
2023-05-19T17:49:43.725Z,22.17
2023-05-19T17:51:15.754Z,22.12
2023-05-19T17:52:47.748Z,22.02
2023-05-19T17:54:20.037Z,21.94
2023-05-19T17:55:52.846Z,21.72
2023-05-19T17:57:25.755Z,21.58
2023-05-19T17:58:57.808Z,21.51
2023-05-19T18:00:29.790Z,21.44
2023-05-19T18:02:01.850Z,21.41
2023-05-19T18:03:34.029Z,21.42
2023-05-19T18:05:06.174Z,21.36
2023-05-19T18:06:38.805Z,21.30
2023-05-19T18:08:10.913Z,21.23
2023-05-19T18:09:45.271Z,21.21
2023-05-19T18:11:22.599Z,21.16
2023-05-19T18:12:54.420Z,21.00
2023-05-19T18:14:26.419Z,20.97
2023-05-19T18:16:00.035Z,20.89
2023-05-19T18:17:31.998Z,20.82
2023-05-19T18:19:04.399Z,20.77
2023-05-19T18:20:38.081Z,20.74
2023-05-19T18:22:13.255Z,20.74
2023-05-19T18:23:45.689Z,20.72
2023-05-19T18:25:18.876Z,20.70
2023-05-19T18:26:50.727Z,20.64
2023-05-19T18:28:23.415Z,20.57
2023-05-19T18:29:55.276Z,20.44
2023-05-19T18:31:27.238Z,20.38
2023-05-19T18:33:02.306Z,20.38
2023-05-19T18:34:34.269Z,20.36
2023-05-19T18:36:06.275Z,20.36
2023-05-19T18:37:38.124Z,20.33
2023-05-19T18:39:10.481Z,20.29
2023-05-19T18:40:45.628Z,20.21
2023-05-19T18:42:17.490Z,20.14
2023-05-19T18:43:49.364Z,20.16
2023-05-19T18:45:21.195Z,20.15
2023-05-19T18:46:53.856Z,20.08
2023-05-19T18:48:28.471Z,20.00
2023-05-19T18:50:00.389Z,20.00
2023-05-19T18:51:34.739Z,19.99
2023-05-19T18:53:06.766Z,19.98
2023-05-19T18:54:38.799Z,19.92
2023-05-19T18:56:15.504Z,19.89
2023-05-19T18:57:47.388Z,19.85
2023-05-19T18:59:19.308Z,19.81
2023-05-19T19:00:51.174Z,19.80
2023-05-19T19:02:23.105Z,19.75
2023-05-19T19:03:54.922Z,19.71
2023-05-19T19:05:26.836Z,19.70
2023-05-19T19:06:58.723Z,19.66
2023-05-19T19:08:30.593Z,19.63
2023-05-19T19:10:02.476Z,19.60
2023-05-19T19:11:34.374Z,19.54
2023-05-19T19:13:06.545Z,19.54
2023-05-19T19:14:38.980Z,19.54
2023-05-19T19:16:10.930Z,19.51
2023-05-19T19:17:42.856Z,19.47
2023-05-19T19:19:14.816Z,19.43
2023-05-19T19:20:46.940Z,19.40
2023-05-19T19:22:18.878Z,19.37
2023-05-19T19:23:52.712Z,19.39
2023-05-19T19:25:24.704Z,19.38
2023-05-19T19:26:56.536Z,19.33
2023-05-19T19:28:28.444Z,19.32
2023-05-19T19:30:00.324Z,19.29
2023-05-19T19:31:33.509Z,19.24
2023-05-19T19:33:06.825Z,19.21
2023-05-19T19:34:38.886Z,19.15
2023-05-19T19:36:11.524Z,19.13
2023-05-19T19:37:43.374Z,19.11
2023-05-19T19:39:15.221Z,19.09
2023-05-19T19:40:47.070Z,19.07
2023-05-19T19:42:19.151Z,19.07
2023-05-19T19:43:51.193Z,19.02
2023-05-19T19:45:23.038Z,18.98
2023-05-19T19:46:54.940Z,18.94
2023-05-19T19:48:27.116Z,18.89
2023-05-19T19:49:59.427Z,18.80
2023-05-19T19:51:31.949Z,18.76
2023-05-19T19:53:03.948Z,18.74
2023-05-19T19:54:36.009Z,18.72
2023-05-19T19:56:07.817Z,18.70
2023-05-19T19:57:39.680Z,18.69
2023-05-19T19:59:11.518Z,18.64
2023-05-19T20:00:43.371Z,18.60
2023-05-19T20:02:15.362Z,18.61
2023-05-19T20:03:47.699Z,18.56